Time,TemperatureF,DewpointF,PressureIn,WindDirection,WindDirectionDegrees,WindSpeedMPH,WindSpeedGustMPH,Humidity,HourlyPrecipIn,Conditions,Clouds,dailyrainin,SolarRadiationWatts/m^2,SoftwareType,DateUTC
2013-03-09 00:00:00,24.0,23.0,-100.00,West,267,9.0,15.0,96,0.00,,,0.17,0.000000,,2013-03-09 07:00:00,
2013-03-09 00:32:00,24.0,23.0,-100.00,West,267,9.0,15.0,96,0.00,,,0.17,0.000000,,2013-03-09 07:32:00,
2013-03-09 00:42:00,24.0,23.0,-100.00,West,267,9.0,15.0,96,0.00,,,0.17,0.000000,,2013-03-09 07:42:00,
2013-03-09 00:52:00,24.0,23.0,-100.00,West,267,9.0,15.0,96,0.00,,,0.17,0.000000,,2013-03-09 07:52:00,
2013-03-09 01:00:00,24.0,21.0,-100.00,West,264,11.0,20.0,88,0.00,,,0.17,0.000000,,2013-03-09 08:00:00,
2013-03-09 01:32:00,24.0,21.0,-100.00,West,264,11.0,20.0,88,0.00,,,0.17,0.000000,,2013-03-09 08:32:00,
2013-03-09 01:42:00,24.0,21.0,-100.00,West,264,11.0,20.0,88,0.00,,,0.17,0.000000,,2013-03-09 08:42:00,
2013-03-09 01:52:00,24.0,21.0,-100.00,West,264,11.0,20.0,88,0.00,,,0.17,0.000000,,2013-03-09 08:52:00,
2013-03-09 02:00:00,25.0,20.0,-100.00,WSW,245,10.0,21.0,82,0.00,,,0.17,0.000000,,2013-03-09 09:00:00,
2013-03-09 02:32:00,25.0,20.0,-100.00,WSW,245,10.0,21.0,82,0.00,,,0.17,0.000000,,2013-03-09 09:32:00,
2013-03-09 02:42:00,25.0,20.0,-100.00,WSW,245,10.0,21.0,82,0.00,,,0.17,0.000000,,2013-03-09 09:42:00,
2013-03-09 02:52:00,25.0,20.0,-100.00,WSW,245,10.0,21.0,82,0.00,,,0.17,0.000000,,2013-03-09 09:52:00,
2013-03-09 03:00:00,26.0,20.0,-100.00,WSW,253,8.0,20.0,79,0.00,,,0.17,0.000000,,2013-03-09 10:00:00,
2013-03-09 03:32:00,26.0,20.0,-100.00,WSW,253,8.0,20.0,79,0.00,,,0.17,0.000000,,2013-03-09 10:32:00,
2013-03-09 03:42:00,26.0,20.0,-100.00,WSW,253,8.0,20.0,79,0.00,,,0.17,0.000000,,2013-03-09 10:42:00,
2013-03-09 03:52:00,26.0,20.0,-100.00,WSW,253,8.0,20.0,79,0.00,,,0.17,0.000000,,2013-03-09 10:52:00,
2013-03-09 04:00:00,25.0,21.0,-100.00,SSW,206,2.0,11.0,86,0.00,,,0.17,0.000000,,2013-03-09 11:00:00,
2013-03-09 04:22:00,25.0,21.0,-100.00,SSW,206,2.0,11.0,86,0.00,,,0.17,0.000000,,2013-03-09 11:22:00,
2013-03-09 04:32:00,25.0,21.0,-100.00,SSW,206,2.0,11.0,86,0.00,,,0.17,0.000000,,2013-03-09 11:32:00,
2013-03-09 04:42:00,25.0,21.0,-100.00,SSW,206,2.0,11.0,86,0.00,,,0.17,0.000000,,2013-03-09 11:42:00,
2013-03-09 04:52:00,25.0,21.0,-100.00,SSW,206,2.0,11.0,86,0.00,,,0.17,0.000000,,2013-03-09 11:52:00,
2013-03-09 05:00:00,25.0,24.0,-100.00,SSW,205,2.0,8.0,96,0.00,,,0.17,0.000000,,2013-03-09 12:00:00,
2013-03-09 05:32:00,25.0,24.0,-100.00,SSW,205,2.0,8.0,96,0.00,,,0.17,0.000000,,2013-03-09 12:32:00,
2013-03-09 05:42:00,25.0,24.0,-100.00,SSW,205,2.0,8.0,96,0.00,,,0.17,0.000000,,2013-03-09 12:42:00,
2013-03-09 05:52:00,25.0,24.0,-100.00,SSW,205,2.0,8.0,96,0.00,,,0.17,0.000000,,2013-03-09 12:52:00,
2013-03-09 06:00:00,24.0,23.0,-100.00,West,274,0.0,11.0,96,0.00,,,0.17,0.000000,,2013-03-09 13:00:00,
2013-03-09 06:32:00,24.0,23.0,-100.00,West,274,0.0,11.0,96,0.00,,,0.17,0.000000,,2013-03-09 13:32:00,
2013-03-09 06:42:00,24.0,23.0,-100.00,West,274,0.0,11.0,96,0.00,,,0.17,0.000000,,2013-03-09 13:42:00,
2013-03-09 06:52:00,24.0,23.0,-100.00,West,274,0.0,11.0,96,0.00,,,0.17,0.000000,,2013-03-09 13:52:00,
2013-03-09 07:00:00,24.0,24.0,-100.00,WSW,256,1.0,6.0,98,0.00,,,0.17,0.000000,,2013-03-09 14:00:00,
2013-03-09 07:32:00,24.0,24.0,-100.00,WSW,256,1.0,6.0,98,0.00,,,0.17,0.000000,,2013-03-09 14:32:00,
2013-03-09 07:42:00,24.0,24.0,-100.00,WSW,256,1.0,6.0,98,0.00,,,0.17,0.000000,,2013-03-09 14:42:00,
2013-03-09 07:52:00,24.0,24.0,-100.00,WSW,256,1.0,6.0,98,0.00,,,0.17,0.000000,,2013-03-09 14:52:00,
2013-03-09 08:00:00,26.0,25.0,-100.00,West,259,2.0,5.0,95,0.00,,,0.17,2.000000,,2013-03-09 15:00:00,
2013-03-09 08:32:00,26.0,25.0,-100.00,West,259,2.0,5.0,95,0.00,,,0.17,2.000000,,2013-03-09 15:32:00,
2013-03-09 08:42:00,26.0,25.0,-100.00,West,259,2.0,5.0,95,0.00,,,0.17,2.000000,,2013-03-09 15:42:00,
2013-03-09 08:52:00,26.0,25.0,-100.00,West,259,2.0,5.0,95,0.00,,,0.17,2.000000,,2013-03-09 15:52:00,
2013-03-09 09:00:00,30.0,25.0,-100.00,WNW,299,5.0,10.0,81,0.00,,,0.17,25.000000,,2013-03-09 16:00:00,
2013-03-09 09:32:00,30.0,25.0,-100.00,WNW,299,5.0,10.0,81,0.00,,,0.17,25.000000,,2013-03-09 16:32:00,
2013-03-09 09:42:00,30.0,25.0,-100.00,WNW,299,5.0,10.0,81,0.00,,,0.17,25.000000,,2013-03-09 16:42:00,
2013-03-09 09:52:00,30.0,25.0,-100.00,WNW,299,5.0,10.0,81,0.00,,,0.17,25.000000,,2013-03-09 16:52:00,
2013-03-09 10:00:00,33.0,25.0,-100.00,WNW,295,11.0,25.0,73,0.00,,,0.17,92.000000,,2013-03-09 17:00:00,
2013-03-09 10:32:00,33.0,25.0,-100.00,WNW,295,11.0,25.0,73,0.00,,,0.17,92.000000,,2013-03-09 17:32:00,
2013-03-09 10:42:00,33.0,25.0,-100.00,WNW,295,11.0,25.0,73,0.00,,,0.17,92.000000,,2013-03-09 17:42:00,
2013-03-09 10:52:00,33.0,25.0,-100.00,WNW,295,11.0,25.0,73,0.00,,,0.17,92.000000,,2013-03-09 17:52:00,
2013-03-09 11:00:00,33.0,25.0,-100.00,WNW,297,10.0,19.0,72,0.17,,,0.30,403.000000,,2013-03-09 18:00:00,
2013-03-09 11:32:00,33.0,25.0,-100.00,WNW,297,10.0,19.0,72,0.17,,,0.30,403.000000,,2013-03-09 18:32:00,
2013-03-09 11:42:00,33.0,25.0,-100.00,WNW,297,10.0,19.0,72,0.17,,,0.30,403.000000,,2013-03-09 18:42:00,
2013-03-09 11:52:00,33.0,25.0,-100.00,WNW,297,10.0,19.0,72,0.17,,,0.30,403.000000,,2013-03-09 18:52:00,
2013-03-09 12:00:00,33.0,24.0,-100.00,NW,308,9.0,18.0,70,0.09,,,0.36,688.000000,,2013-03-09 19:00:00,
2013-03-09 12:32:00,33.0,24.0,-100.00,NW,308,9.0,18.0,70,0.09,,,0.36,688.000000,,2013-03-09 19:32:00,
2013-03-09 12:42:00,33.0,24.0,-100.00,NW,308,9.0,18.0,70,0.09,,,0.36,688.000000,,2013-03-09 19:42:00,
2013-03-09 12:52:00,33.0,24.0,-100.00,NW,308,9.0,18.0,70,0.09,,,0.36,688.000000,,2013-03-09 19:52:00,
2013-03-09 13:00:00,36.0,27.0,-100.00,NNW,334,8.0,17.0,70,0.00,,,0.36,838.000000,,2013-03-09 20:00:00,
2013-03-09 13:32:00,36.0,27.0,-100.00,NNW,334,8.0,17.0,70,0.00,,,0.36,838.000000,,2013-03-09 20:32:00,
2013-03-09 13:42:00,36.0,27.0,-100.00,NNW,334,8.0,17.0,70,0.00,,,0.36,838.000000,,2013-03-09 20:42:00,
2013-03-09 13:52:00,36.0,27.0,-100.00,NNW,334,8.0,17.0,70,0.00,,,0.36,838.000000,,2013-03-09 20:52:00,
2013-03-09 14:00:00,40.0,28.0,-100.00,NNW,335,8.0,18.0,61,0.00,,,0.36,746.000000,,2013-03-09 21:00:00,
2013-03-09 14:32:00,40.0,28.0,-100.00,NNW,335,8.0,18.0,61,0.00,,,0.36,746.000000,,2013-03-09 21:32:00,
2013-03-09 14:42:00,40.0,28.0,-100.00,NNW,335,8.0,18.0,61,0.00,,,0.36,746.000000,,2013-03-09 21:42:00,
2013-03-09 14:52:00,40.0,28.0,-100.00,NNW,335,8.0,18.0,61,0.00,,,0.36,746.000000,,2013-03-09 21:52:00,
2013-03-09 15:00:00,38.0,29.0,-100.00,NNW,347,7.0,16.0,69,0.00,,,0.36,937.000000,,2013-03-09 22:00:00,
2013-03-09 15:32:00,38.0,29.0,-100.00,NNW,347,7.0,16.0,69,0.00,,,0.36,937.000000,,2013-03-09 22:32:00,
2013-03-09 15:42:00,38.0,29.0,-100.00,NNW,347,7.0,16.0,69,0.00,,,0.36,937.000000,,2013-03-09 22:42:00,
2013-03-09 15:52:00,38.0,29.0,-100.00,NNW,347,7.0,16.0,69,0.00,,,0.36,937.000000,,2013-03-09 22:52:00,
2013-03-09 16:00:00,38.0,29.0,-100.00,North,353,6.0,16.0,70,0.00,,,0.27,548.000000,,2013-03-09 23:00:00,
2013-03-09 16:22:00,38.0,29.0,-100.00,North,353,6.0,16.0,70,0.00,,,0.27,548.000000,,2013-03-09 23:22:00,
2013-03-09 16:32:00,38.0,29.0,-100.00,North,353,6.0,16.0,70,0.00,,,0.27,548.000000,,2013-03-09 23:32:00,
2013-03-09 16:42:00,38.0,29.0,-100.00,North,353,6.0,16.0,70,0.00,,,0.27,548.000000,,2013-03-09 23:42:00,
2013-03-09 16:52:00,38.0,29.0,-100.00,North,353,6.0,16.0,70,0.00,,,0.27,548.000000,,2013-03-09 23:52:00,
2013-03-09 17:00:00,35.0,28.0,-100.00,NNW,339,7.0,16.0,75,0.00,,,0.26,405.000000,,2013-03-10 00:00:00,
2013-03-09 17:32:00,35.0,28.0,-100.00,NNW,339,7.0,16.0,75,0.00,,,0.26,405.000000,,2013-03-10 00:32:00,
2013-03-09 17:43:00,35.0,28.0,-100.00,NNW,339,7.0,16.0,75,0.00,,,0.26,405.000000,,2013-03-10 00:43:00,
2013-03-09 17:52:00,35.0,28.0,-100.00,NNW,339,7.0,16.0,75,0.00,,,0.26,405.000000,,2013-03-10 00:52:00,
2013-03-09 18:00:00,34.0,26.0,-100.00,NE,37,8.0,15.0,72,0.00,,,-99.99,279.000000,,2013-03-10 01:00:00,
2013-03-09 18:22:00,34.0,26.0,-100.00,NE,37,8.0,15.0,72,0.00,,,-99.99,279.000000,,2013-03-10 01:22:00,
2013-03-09 18:32:00,34.0,26.0,-100.00,NE,37,8.0,15.0,72,0.00,,,-99.99,279.000000,,2013-03-10 01:32:00,
2013-03-09 18:42:00,34.0,26.0,-100.00,NE,37,8.0,15.0,72,0.00,,,-99.99,279.000000,,2013-03-10 01:42:00,
2013-03-09 18:52:00,34.0,26.0,-100.00,NE,37,8.0,15.0,72,0.00,,,-99.99,279.000000,,2013-03-10 01:52:00,
2013-03-09 19:00:00,31.0,28.0,-100.00,NNW,347,11.0,19.0,89,0.00,,,-99.99,228.000000,,2013-03-10 02:00:00,
2013-03-09 19:32:00,31.0,28.0,-100.00,NNW,347,11.0,19.0,89,0.00,,,-99.99,228.000000,,2013-03-10 02:32:00,
2013-03-09 19:42:00,31.0,28.0,-100.00,NNW,347,11.0,19.0,89,0.00,,,-99.99,228.000000,,2013-03-10 02:42:00,
2013-03-09 19:52:00,31.0,28.0,-100.00,NNW,347,11.0,19.0,89,0.00,,,-99.99,228.000000,,2013-03-10 02:52:00,
2013-03-09 20:00:00,31.0,28.0,-100.00,North,2,8.0,19.0,87,0.00,,,0.26,5.000000,,2013-03-10 03:00:00,
2013-03-09 20:22:00,31.0,28.0,-100.00,North,2,8.0,19.0,87,0.00,,,0.26,5.000000,,2013-03-10 03:22:00,
2013-03-09 20:32:00,31.0,28.0,-100.00,North,2,8.0,19.0,87,0.00,,,0.26,5.000000,,2013-03-10 03:32:00,
2013-03-09 20:42:00,31.0,28.0,-100.00,North,2,8.0,19.0,87,0.00,,,0.26,5.000000,,2013-03-10 03:42:00,
2013-03-09 20:52:00,31.0,28.0,-100.00,North,2,8.0,19.0,87,0.00,,,0.26,5.000000,,2013-03-10 03:52:00,
2013-03-09 21:00:00,31.0,27.0,-100.00,North,358,8.0,18.0,85,0.00,,,0.26,0.000000,,2013-03-10 04:00:00,
2013-03-09 21:32:00,31.0,27.0,-100.00,North,358,8.0,18.0,85,0.00,,,0.26,0.000000,,2013-03-10 04:32:00,
2013-03-09 21:42:00,31.0,27.0,-100.00,North,358,8.0,18.0,85,0.00,,,0.26,0.000000,,2013-03-10 04:42:00,
2013-03-09 21:52:00,31.0,27.0,-100.00,North,358,8.0,18.0,85,0.00,,,0.26,0.000000,,2013-03-10 04:52:00,
2013-03-09 22:00:00,29.0,25.0,-100.00,NNW,346,10.0,16.0,85,0.00,,,0.26,0.000000,,2013-03-10 05:00:00,
2013-03-09 22:22:00,29.0,25.0,-100.00,NNW,346,10.0,16.0,85,0.00,,,0.26,0.000000,,2013-03-10 05:22:00,
2013-03-09 22:32:00,29.0,25.0,-100.00,NNW,346,10.0,16.0,85,0.00,,,0.26,0.000000,,2013-03-10 05:32:00,
2013-03-09 22:42:00,29.0,25.0,-100.00,NNW,346,10.0,16.0,85,0.00,,,0.26,0.000000,,2013-03-10 05:42:00,
2013-03-09 22:52:00,29.0,25.0,-100.00,NNW,346,10.0,16.0,85,0.00,,,0.26,0.000000,,2013-03-10 05:52:00,
2013-03-09 23:00:00,29.0,22.0,-100.00,NNW,332,10.0,21.0,75,0.00,,,0.26,0.000000,,2013-03-10 06:00:00,
2013-03-09 23:32:00,29.0,22.0,-100.00,NNW,332,10.0,21.0,75,0.00,,,0.26,0.000000,,2013-03-10 06:32:00,
2013-03-09 23:42:00,29.0,22.0,-100.00,NNW,332,10.0,21.0,75,0.00,,,0.26,0.000000,,2013-03-10 06:42:00,
2013-03-09 23:52:00,29.0,22.0,-100.00,NNW,332,10.0,21.0,75,0.00,,,0.26,0.000000,,2013-03-10 06:52:00,